sensor_id;sensor_type;location;lat;lon;timestamp;temperature;humidity
2913;DHT22;1466;48.778;9.166;2024-01-06T00:01:25;8.90;99.90
2913;DHT22;1466;48.778;9.166;2024-01-06T00:03:51;8.90;99.90
2913;DHT22;1466;48.778;9.166;2024-01-06T00:06:17;8.90;99.90
2913;DHT22;1466;48.778;9.166;2024-01-06T00:08:42;8.90;99.90
2913;DHT22;1466;48.778;9.166;2024-01-06T00:11:09;8.90;99.90
2913;DHT22;1466;48.778;9.166;2024-01-06T00:13:35;8.90;99.90
2913;DHT22;1466;48.778;9.166;2024-01-06T00:16:00;9.00;99.90
2913;DHT22;1466;48.778;9.166;2024-01-06T00:18:26;9.00;99.90
2913;DHT22;1466;48.778;9.166;2024-01-06T00:20:51;9.00;99.90
2913;DHT22;1466;48.778;9.166;2024-01-06T00:23:17;9.00;99.90
2913;DHT22;1466;48.778;9.166;2024-01-06T00:25:43;9.10;99.90
2913;DHT22;1466;48.778;9.166;2024-01-06T00:28:08;9.10;99.90
2913;DHT22;1466;48.778;9.166;2024-01-06T00:30:34;9.10;99.90
2913;DHT22;1466;48.778;9.166;2024-01-06T00:33:00;9.10;99.90
2913;DHT22;1466;48.778;9.166;2024-01-06T00:35:25;9.10;99.90
2913;DHT22;1466;48.778;9.166;2024-01-06T00:37:51;9.20;99.90
2913;DHT22;1466;48.778;9.166;2024-01-06T00:40:16;9.10;99.90
2913;DHT22;1466;48.778;9.166;2024-01-06T00:42:44;9.10;99.90
2913;DHT22;1466;48.778;9.166;2024-01-06T00:45:09;9.20;99.90
2913;DHT22;1466;48.778;9.166;2024-01-06T00:47:35;9.10;99.90
2913;DHT22;1466;48.778;9.166;2024-01-06T00:50:00;9.10;99.90
2913;DHT22;1466;48.778;9.166;2024-01-06T00:52:26;9.10;99.90
2913;DHT22;1466;48.778;9.166;2024-01-06T00:54:52;9.20;99.90
2913;DHT22;1466;48.778;9.166;2024-01-06T00:57:17;9.20;99.90
2913;DHT22;1466;48.778;9.166;2024-01-06T00:59:43;9.20;99.90
2913;DHT22;1466;48.778;9.166;2024-01-06T01:02:08;9.30;99.90
2913;DHT22;1466;48.778;9.166;2024-01-06T01:04:34;9.30;99.90
2913;DHT22;1466;48.778;9.166;2024-01-06T01:06:59;9.30;99.90
2913;DHT22;1466;48.778;9.166;2024-01-06T01:09:25;9.30;99.90
2913;DHT22;1466;48.778;9.166;2024-01-06T01:11:50;9.30;99.90
2913;DHT22;1466;48.778;9.166;2024-01-06T01:14:16;9.30;99.90
2913;DHT22;1466;48.778;9.166;2024-01-06T01:16:44;9.20;99.90
2913;DHT22;1466;48.778;9.166;2024-01-06T01:19:09;9.20;99.90
2913;DHT22;1466;48.778;9.166;2024-01-06T01:21:35;9.20;99.90
2913;DHT22;1466;48.778;9.166;2024-01-06T01:24:00;9.30;99.90
2913;DHT22;1466;48.778;9.166;2024-01-06T01:26:26;9.20;99.90
2913;DHT22;1466;48.778;9.166;2024-01-06T01:28:51;9.20;99.90
2913;DHT22;1466;48.778;9.166;2024-01-06T01:31:17;9.20;99.90
2913;DHT22;1466;48.778;9.166;2024-01-06T01:33:43;9.30;99.90
2913;DHT22;1466;48.778;9.166;2024-01-06T01:36:08;9.30;99.90
2913;DHT22;1466;48.778;9.166;2024-01-06T01:38:34;9.30;99.90
2913;DHT22;1466;48.778;9.166;2024-01-06T01:40:59;9.40;99.90
2913;DHT22;1466;48.778;9.166;2024-01-06T01:43:25;9.30;99.90
2913;DHT22;1466;48.778;9.166;2024-01-06T01:45:53;9.30;99.90
2913;DHT22;1466;48.778;9.166;2024-01-06T01:48:20;9.40;99.90
2913;DHT22;1466;48.778;9.166;2024-01-06T01:50:46;9.30;99.90
2913;DHT22;1466;48.778;9.166;2024-01-06T01:53:12;9.30;99.90
2913;DHT22;1466;48.778;9.166;2024-01-06T01:55:40;9.30;99.90
2913;DHT22;1466;48.778;9.166;2024-01-06T01:58:06;9.30;99.90
2913;DHT22;1466;48.778;9.166;2024-01-06T02:00:31;9.30;99.90
2913;DHT22;1466;48.778;9.166;2024-01-06T02:02:59;9.30;99.90
2913;DHT22;1466;48.778;9.166;2024-01-06T02:05:25;9.30;99.90
2913;DHT22;1466;48.778;9.166;2024-01-06T02:07:50;9.30;99.90
2913;DHT22;1466;48.778;9.166;2024-01-06T02:10:19;9.30;99.90
2913;DHT22;1466;48.778;9.166;2024-01-06T02:12:45;9.20;99.90
2913;DHT22;1466;48.778;9.166;2024-01-06T02:15:11;9.20;99.90
2913;DHT22;1466;48.778;9.166;2024-01-06T02:17:36;9.20;99.90
2913;DHT22;1466;48.778;9.166;2024-01-06T02:20:02;9.20;99.90
2913;DHT22;1466;48.778;9.166;2024-01-06T02:22:29;9.20;99.90
2913;DHT22;1466;48.778;9.166;2024-01-06T02:24:54;9.20;99.90
2913;DHT22;1466;48.778;9.166;2024-01-06T02:27:20;9.20;99.90
2913;DHT22;1466;48.778;9.166;2024-01-06T02:29:46;9.10;99.90
2913;DHT22;1466;48.778;9.166;2024-01-06T02:32:11;9.10;99.90
2913;DHT22;1466;48.778;9.166;2024-01-06T02:34:37;9.10;99.90
2913;DHT22;1466;48.778;9.166;2024-01-06T02:37:03;9.10;99.90
2913;DHT22;1466;48.778;9.166;2024-01-06T02:39:29;9.10;99.90
2913;DHT22;1466;48.778;9.166;2024-01-06T02:41:55;9.10;99.90
2913;DHT22;1466;48.778;9.166;2024-01-06T02:44:20;9.10;99.90
2913;DHT22;1466;48.778;9.166;2024-01-06T02:46:46;9.10;99.90
2913;DHT22;1466;48.778;9.166;2024-01-06T02:49:11;9.00;99.90
2913;DHT22;1466;48.778;9.166;2024-01-06T02:51:37;9.00;99.90
2913;DHT22;1466;48.778;9.166;2024-01-06T02:54:02;9.00;99.90
2913;DHT22;1466;48.778;9.166;2024-01-06T02:56:29;8.90;99.90
2913;DHT22;1466;48.778;9.166;2024-01-06T02:58:54;8.90;99.90
2913;DHT22;1466;48.778;9.166;2024-01-06T03:01:20;8.90;99.90
2913;DHT22;1466;48.778;9.166;2024-01-06T03:03:45;8.90;99.90
2913;DHT22;1466;48.778;9.166;2024-01-06T03:06:11;8.90;99.90
2913;DHT22;1466;48.778;9.166;2024-01-06T03:08:36;8.90;99.90
2913;DHT22;1466;48.778;9.166;2024-01-06T03:11:02;8.90;99.90
2913;DHT22;1466;48.778;9.166;2024-01-06T03:13:30;8.90;99.90
2913;DHT22;1466;48.778;9.166;2024-01-06T03:15:55;8.90;99.90
2913;DHT22;1466;48.778;9.166;2024-01-06T03:18:21;8.80;99.90
2913;DHT22;1466;48.778;9.166;2024-01-06T03:20:46;8.80;99.90
2913;DHT22;1466;48.778;9.166;2024-01-06T03:23:12;8.80;99.90
2913;DHT22;1466;48.778;9.166;2024-01-06T03:25:37;8.80;99.90
2913;DHT22;1466;48.778;9.166;2024-01-06T03:28:03;8.80;99.90
2913;DHT22;1466;48.778;9.166;2024-01-06T03:30:29;8.80;99.90
2913;DHT22;1466;48.778;9.166;2024-01-06T03:32:55;8.70;99.90
2913;DHT22;1466;48.778;9.166;2024-01-06T03:35:20;8.70;99.90
2913;DHT22;1466;48.778;9.166;2024-01-06T03:37:46;8.70;99.90
2913;DHT22;1466;48.778;9.166;2024-01-06T03:40:12;8.70;99.90
2913;DHT22;1466;48.778;9.166;2024-01-06T03:42:38;8.70;99.90
2913;DHT22;1466;48.778;9.166;2024-01-06T03:45:04;8.80;99.90
2913;DHT22;1466;48.778;9.166;2024-01-06T03:47:29;8.90;99.90
2913;DHT22;1466;48.778;9.166;2024-01-06T03:49:55;8.90;99.90
2913;DHT22;1466;48.778;9.166;2024-01-06T03:52:20;8.80;99.90
2913;DHT22;1466;48.778;9.166;2024-01-06T03:54:46;8.90;99.90
2913;DHT22;1466;48.778;9.166;2024-01-06T03:57:11;8.80;99.90
2913;DHT22;1466;48.778;9.166;2024-01-06T03:59:39;8.80;99.90
2913;DHT22;1466;48.778;9.166;2024-01-06T04:02:05;8.70;99.90
2913;DHT22;1466;48.778;9.166;2024-01-06T04:04:30;8.70;99.90
2913;DHT22;1466;48.778;9.166;2024-01-06T04:06:56;8.60;99.90
2913;DHT22;1466;48.778;9.166;2024-01-06T04:09:22;8.70;99.90
2913;DHT22;1466;48.778;9.166;2024-01-06T04:11:47;8.70;99.90
2913;DHT22;1466;48.778;9.166;2024-01-06T04:14:13;8.70;99.90
2913;DHT22;1466;48.778;9.166;2024-01-06T04:16:38;8.70;99.90
2913;DHT22;1466;48.778;9.166;2024-01-06T04:19:04;8.70;99.90
2913;DHT22;1466;48.778;9.166;2024-01-06T04:21:32;8.70;99.90
2913;DHT22;1466;48.778;9.166;2024-01-06T04:23:58;8.60;99.90
2913;DHT22;1466;48.778;9.166;2024-01-06T04:26:24;8.60;99.90
2913;DHT22;1466;48.778;9.166;2024-01-06T04:28:50;8.60;99.90
2913;DHT22;1466;48.778;9.166;2024-01-06T04:31:16;8.50;99.90
2913;DHT22;1466;48.778;9.166;2024-01-06T04:33:41;8.50;99.90
2913;DHT22;1466;48.778;9.166;2024-01-06T04:36:07;8.60;99.90
2913;DHT22;1466;48.778;9.166;2024-01-06T04:38:32;8.60;99.90
2913;DHT22;1466;48.778;9.166;2024-01-06T04:40:58;8.60;99.90
2913;DHT22;1466;48.778;9.166;2024-01-06T04:43:24;8.60;99.90
2913;DHT22;1466;48.778;9.166;2024-01-06T04:45:49;8.60;99.90
2913;DHT22;1466;48.778;9.166;2024-01-06T04:48:16;8.60;99.90
2913;DHT22;1466;48.778;9.166;2024-01-06T04:50:41;8.60;99.90
2913;DHT22;1466;48.778;9.166;2024-01-06T04:53:08;8.60;99.90
2913;DHT22;1466;48.778;9.166;2024-01-06T04:55:33;8.60;99.90
2913;DHT22;1466;48.778;9.166;2024-01-06T04:57:59;8.50;99.90
2913;DHT22;1466;48.778;9.166;2024-01-06T05:00:24;8.50;99.90
2913;DHT22;1466;48.778;9.166;2024-01-06T05:02:51;8.50;99.90
2913;DHT22;1466;48.778;9.166;2024-01-06T05:05:16;8.50;99.90
2913;DHT22;1466;48.778;9.166;2024-01-06T05:07:42;8.50;99.90
2913;DHT22;1466;48.778;9.166;2024-01-06T05:10:08;8.50;99.90
2913;DHT22;1466;48.778;9.166;2024-01-06T05:12:33;8.50;99.90
2913;DHT22;1466;48.778;9.166;2024-01-06T05:14:59;8.50;99.90
2913;DHT22;1466;48.778;9.166;2024-01-06T05:17:25;8.50;99.90
2913;DHT22;1466;48.778;9.166;2024-01-06T05:19:50;8.50;99.90
2913;DHT22;1466;48.778;9.166;2024-01-06T05:22:16;8.60;99.90
2913;DHT22;1466;48.778;9.166;2024-01-06T05:24:45;8.60;99.90
2913;DHT22;1466;48.778;9.166;2024-01-06T05:27:11;8.70;99.80
2913;DHT22;1466;48.778;9.166;2024-01-06T05:29:37;8.60;99.70
2913;DHT22;1466;48.778;9.166;2024-01-06T05:32:02;8.50;99.80
2913;DHT22;1466;48.778;9.166;2024-01-06T05:34:30;8.50;99.80
2913;DHT22;1466;48.778;9.166;2024-01-06T05:36:56;8.40;99.90
2913;DHT22;1466;48.778;9.166;2024-01-06T05:39:21;8.50;99.90
2913;DHT22;1466;48.778;9.166;2024-01-06T05:41:47;8.50;99.90
2913;DHT22;1466;48.778;9.166;2024-01-06T05:44:13;8.50;99.90
2913;DHT22;1466;48.778;9.166;2024-01-06T05:46:38;8.60;99.90
2913;DHT22;1466;48.778;9.166;2024-01-06T05:49:04;8.60;99.90
2913;DHT22;1466;48.778;9.166;2024-01-06T05:51:30;8.60;99.80
2913;DHT22;1466;48.778;9.166;2024-01-06T05:53:55;8.60;99.80
2913;DHT22;1466;48.778;9.166;2024-01-06T05:56:24;8.60;99.90
2913;DHT22;1466;48.778;9.166;2024-01-06T05:58:51;8.70;99.90
2913;DHT22;1466;48.778;9.166;2024-01-06T06:01:17;8.60;99.70
2913;DHT22;1466;48.778;9.166;2024-01-06T06:03:43;8.60;99.60
2913;DHT22;1466;48.778;9.166;2024-01-06T06:06:09;8.50;99.50
2913;DHT22;1466;48.778;9.166;2024-01-06T06:08:34;8.50;99.70
2913;DHT22;1466;48.778;9.166;2024-01-06T06:11:00;8.50;99.60
2913;DHT22;1466;48.778;9.166;2024-01-06T06:13:39;8.50;99.80
2913;DHT22;1466;48.778;9.166;2024-01-06T06:16:06;8.40;99.70
2913;DHT22;1466;48.778;9.166;2024-01-06T06:18:32;8.40;99.70
2913;DHT22;1466;48.778;9.166;2024-01-06T06:20:59;8.30;99.70
2913;DHT22;1466;48.778;9.166;2024-01-06T06:23:25;8.30;99.80
2913;DHT22;1466;48.778;9.166;2024-01-06T06:25:51;8.30;99.80
2913;DHT22;1466;48.778;9.166;2024-01-06T06:28:16;8.20;99.90
2913;DHT22;1466;48.778;9.166;2024-01-06T06:30:42;8.20;99.90
2913;DHT22;1466;48.778;9.166;2024-01-06T06:33:08;8.30;99.90
2913;DHT22;1466;48.778;9.166;2024-01-06T06:35:34;8.30;99.90
2913;DHT22;1466;48.778;9.166;2024-01-06T06:37:59;8.20;99.90
2913;DHT22;1466;48.778;9.166;2024-01-06T06:40:25;8.20;99.90
2913;DHT22;1466;48.778;9.166;2024-01-06T06:42:50;8.20;99.90
2913;DHT22;1466;48.778;9.166;2024-01-06T06:45:16;8.20;99.90
2913;DHT22;1466;48.778;9.166;2024-01-06T06:47:42;8.20;99.90
2913;DHT22;1466;48.778;9.166;2024-01-06T06:50:07;8.20;99.90
2913;DHT22;1466;48.778;9.166;2024-01-06T06:52:33;8.30;99.90
2913;DHT22;1466;48.778;9.166;2024-01-06T06:54:58;8.30;99.90
2913;DHT22;1466;48.778;9.166;2024-01-06T06:57:24;8.40;99.90
2913;DHT22;1466;48.778;9.166;2024-01-06T06:59:50;8.40;99.90
2913;DHT22;1466;48.778;9.166;2024-01-06T07:02:15;8.40;99.90
2913;DHT22;1466;48.778;9.166;2024-01-06T07:04:41;8.40;99.90
2913;DHT22;1466;48.778;9.166;2024-01-06T07:07:06;8.40;99.90
2913;DHT22;1466;48.778;9.166;2024-01-06T07:09:32;8.40;99.90
2913;DHT22;1466;48.778;9.166;2024-01-06T07:11:57;8.40;99.90
2913;DHT22;1466;48.778;9.166;2024-01-06T07:14:23;8.40;99.90
2913;DHT22;1466;48.778;9.166;2024-01-06T07:16:48;8.40;99.90
2913;DHT22;1466;48.778;9.166;2024-01-06T07:19:14;8.40;99.90
2913;DHT22;1466;48.778;9.166;2024-01-06T07:21:40;8.40;99.90
2913;DHT22;1466;48.778;9.166;2024-01-06T07:24:06;8.40;99.90
2913;DHT22;1466;48.778;9.166;2024-01-06T07:26:32;8.50;99.90
2913;DHT22;1466;48.778;9.166;2024-01-06T07:28:57;8.50;99.90
2913;DHT22;1466;48.778;9.166;2024-01-06T07:31:23;8.50;99.90
2913;DHT22;1466;48.778;9.166;2024-01-06T07:33:48;8.60;99.90
2913;DHT22;1466;48.778;9.166;2024-01-06T07:36:14;8.50;99.90
2913;DHT22;1466;48.778;9.166;2024-01-06T07:38:39;8.50;99.90
2913;DHT22;1466;48.778;9.166;2024-01-06T07:41:06;8.50;99.90
2913;DHT22;1466;48.778;9.166;2024-01-06T07:43:32;8.50;99.80
2913;DHT22;1466;48.778;9.166;2024-01-06T07:45:57;8.40;99.80
2913;DHT22;1466;48.778;9.166;2024-01-06T07:48:23;8.40;99.90
2913;DHT22;1466;48.778;9.166;2024-01-06T07:50:49;8.50;99.90
2913;DHT22;1466;48.778;9.166;2024-01-06T07:53:15;8.50;99.90
2913;DHT22;1466;48.778;9.166;2024-01-06T07:55:41;8.50;99.80
2913;DHT22;1466;48.778;9.166;2024-01-06T07:58:06;8.60;99.80
2913;DHT22;1466;48.778;9.166;2024-01-06T08:00:32;8.50;99.60
2913;DHT22;1466;48.778;9.166;2024-01-06T08:02:57;8.50;99.70
2913;DHT22;1466;48.778;9.166;2024-01-06T08:05:23;8.60;99.90
2913;DHT22;1466;48.778;9.166;2024-01-06T08:07:50;8.50;99.50
2913;DHT22;1466;48.778;9.166;2024-01-06T08:10:16;8.50;99.40
2913;DHT22;1466;48.778;9.166;2024-01-06T08:12:42;8.60;99.50
2913;DHT22;1466;48.778;9.166;2024-01-06T08:15:08;8.60;99.40
2913;DHT22;1466;48.778;9.166;2024-01-06T08:17:35;8.60;99.30
2913;DHT22;1466;48.778;9.166;2024-01-06T08:20:01;8.60;99.20
2913;DHT22;1466;48.778;9.166;2024-01-06T08:22:26;8.70;99.10
2913;DHT22;1466;48.778;9.166;2024-01-06T08:24:52;8.60;99.10
2913;DHT22;1466;48.778;9.166;2024-01-06T08:27:18;8.60;98.90
2913;DHT22;1466;48.778;9.166;2024-01-06T08:29:43;8.60;99.00
2913;DHT22;1466;48.778;9.166;2024-01-06T08:32:09;8.70;99.00
2913;DHT22;1466;48.778;9.166;2024-01-06T08:34:35;8.60;98.70
2913;DHT22;1466;48.778;9.166;2024-01-06T08:37:01;8.60;98.70
2913;DHT22;1466;48.778;9.166;2024-01-06T08:39:26;8.60;98.80
2913;DHT22;1466;48.778;9.166;2024-01-06T08:41:52;8.60;98.80
2913;DHT22;1466;48.778;9.166;2024-01-06T08:44:18;8.60;98.80
2913;DHT22;1466;48.778;9.166;2024-01-06T08:46:43;8.70;98.80
2913;DHT22;1466;48.778;9.166;2024-01-06T08:49:09;8.70;98.70
2913;DHT22;1466;48.778;9.166;2024-01-06T08:51:34;8.80;98.50
2913;DHT22;1466;48.778;9.166;2024-01-06T08:54:01;8.80;98.50
2913;DHT22;1466;48.778;9.166;2024-01-06T08:56:30;8.80;98.40
2913;DHT22;1466;48.778;9.166;2024-01-06T08:58:55;8.80;98.40
2913;DHT22;1466;48.778;9.166;2024-01-06T09:01:22;8.80;98.40
2913;DHT22;1466;48.778;9.166;2024-01-06T09:03:48;8.80;98.50
2913;DHT22;1466;48.778;9.166;2024-01-06T09:06:15;8.70;98.30
2913;DHT22;1466;48.778;9.166;2024-01-06T09:08:41;8.80;98.40
2913;DHT22;1466;48.778;9.166;2024-01-06T09:11:07;8.80;98.30
2913;DHT22;1466;48.778;9.166;2024-01-06T09:13:35;8.90;98.20
2913;DHT22;1466;48.778;9.166;2024-01-06T09:16:00;8.90;98.30
2913;DHT22;1466;48.778;9.166;2024-01-06T09:18:26;8.90;98.20
2913;DHT22;1466;48.778;9.166;2024-01-06T09:20:52;9.00;98.10
2913;DHT22;1466;48.778;9.166;2024-01-06T09:23:19;9.00;98.10
2913;DHT22;1466;48.778;9.166;2024-01-06T09:25:45;8.90;98.00
2913;DHT22;1466;48.778;9.166;2024-01-06T09:28:11;8.90;98.20
2913;DHT22;1466;48.778;9.166;2024-01-06T09:30:36;8.90;98.20
2913;DHT22;1466;48.778;9.166;2024-01-06T09:33:03;8.80;98.20
2913;DHT22;1466;48.778;9.166;2024-01-06T09:35:28;8.90;98.40
2913;DHT22;1466;48.778;9.166;2024-01-06T09:37:54;9.00;98.30
2913;DHT22;1466;48.778;9.166;2024-01-06T09:40:22;9.00;98.20
2913;DHT22;1466;48.778;9.166;2024-01-06T09:42:49;9.10;98.30
2913;DHT22;1466;48.778;9.166;2024-01-06T09:45:15;9.20;98.20
2913;DHT22;1466;48.778;9.166;2024-01-06T09:47:41;9.20;98.10
2913;DHT22;1466;48.778;9.166;2024-01-06T09:50:08;9.10;98.00
2913;DHT22;1466;48.778;9.166;2024-01-06T09:52:40;9.10;98.10
2913;DHT22;1466;48.778;9.166;2024-01-06T09:55:10;9.00;98.10
2913;DHT22;1466;48.778;9.166;2024-01-06T09:57:36;8.90;98.30
2913;DHT22;1466;48.778;9.166;2024-01-06T10:00:02;8.90;98.40
2913;DHT22;1466;48.778;9.166;2024-01-06T10:02:29;9.00;98.60
2913;DHT22;1466;48.778;9.166;2024-01-06T10:04:57;9.10;98.70
2913;DHT22;1466;48.778;9.166;2024-01-06T10:07:25;9.10;98.80
2913;DHT22;1466;48.778;9.166;2024-01-06T10:09:54;9.20;99.10
2913;DHT22;1466;48.778;9.166;2024-01-06T10:12:26;9.20;99.00
2913;DHT22;1466;48.778;9.166;2024-01-06T10:14:53;9.20;99.10
2913;DHT22;1466;48.778;9.166;2024-01-06T10:17:19;9.20;99.10
2913;DHT22;1466;48.778;9.166;2024-01-06T10:19:45;9.10;99.40
2913;DHT22;1466;48.778;9.166;2024-01-06T10:22:11;9.00;99.70
2913;DHT22;1466;48.778;9.166;2024-01-06T10:24:37;9.00;99.90
2913;DHT22;1466;48.778;9.166;2024-01-06T10:27:04;8.90;99.90
2913;DHT22;1466;48.778;9.166;2024-01-06T10:29:29;8.80;99.90
2913;DHT22;1466;48.778;9.166;2024-01-06T10:31:55;8.80;99.90
2913;DHT22;1466;48.778;9.166;2024-01-06T10:34:22;8.80;99.90
2913;DHT22;1466;48.778;9.166;2024-01-06T10:36:49;8.60;99.90
2913;DHT22;1466;48.778;9.166;2024-01-06T10:39:15;8.60;99.90
2913;DHT22;1466;48.778;9.166;2024-01-06T10:41:41;8.70;99.90
2913;DHT22;1466;48.778;9.166;2024-01-06T10:44:08;8.70;99.90
2913;DHT22;1466;48.778;9.166;2024-01-06T10:46:41;8.60;99.90
2913;DHT22;1466;48.778;9.166;2024-01-06T10:49:08;8.70;99.90
2913;DHT22;1466;48.778;9.166;2024-01-06T10:51:39;8.80;99.90
2913;DHT22;1466;48.778;9.166;2024-01-06T10:54:05;8.80;99.90
2913;DHT22;1466;48.778;9.166;2024-01-06T10:56:37;8.90;99.90
2913;DHT22;1466;48.778;9.166;2024-01-06T10:59:04;8.80;99.90
2913;DHT22;1466;48.778;9.166;2024-01-06T11:01:30;8.80;99.90
2913;DHT22;1466;48.778;9.166;2024-01-06T11:03:57;8.80;99.90
2913;DHT22;1466;48.778;9.166;2024-01-06T11:06:23;8.80;99.90
2913;DHT22;1466;48.778;9.166;2024-01-06T11:09:14;8.70;99.90
2913;DHT22;1466;48.778;9.166;2024-01-06T11:11:41;8.80;99.90
2913;DHT22;1466;48.778;9.166;2024-01-06T11:14:25;8.70;99.90
2913;DHT22;1466;48.778;9.166;2024-01-06T11:16:52;8.60;99.90
2913;DHT22;1466;48.778;9.166;2024-01-06T11:22:22;8.50;99.90
2913;DHT22;1466;48.778;9.166;2024-01-06T11:24:50;8.50;99.90
2913;DHT22;1466;48.778;9.166;2024-01-06T11:27:27;8.40;99.90
2913;DHT22;1466;48.778;9.166;2024-01-06T11:30:01;8.40;99.90
2913;DHT22;1466;48.778;9.166;2024-01-06T11:43:02;8.40;99.90
2913;DHT22;1466;48.778;9.166;2024-01-06T11:45:29;8.40;99.90
2913;DHT22;1466;48.778;9.166;2024-01-06T11:48:02;8.40;99.90
2913;DHT22;1466;48.778;9.166;2024-01-06T11:50:34;8.40;99.90
2913;DHT22;1466;48.778;9.166;2024-01-06T11:53:00;8.40;99.90
2913;DHT22;1466;48.778;9.166;2024-01-06T11:55:26;8.40;99.90
2913;DHT22;1466;48.778;9.166;2024-01-06T11:57:57;8.50;99.90
2913;DHT22;1466;48.778;9.166;2024-01-06T12:00:27;8.70;99.90
2913;DHT22;1466;48.778;9.166;2024-01-06T12:02:57;8.70;99.90
2913;DHT22;1466;48.778;9.166;2024-01-06T12:05:23;8.70;99.90
2913;DHT22;1466;48.778;9.166;2024-01-06T12:07:58;8.80;99.90
2913;DHT22;1466;48.778;9.166;2024-01-06T12:10:25;8.70;99.90
2913;DHT22;1466;48.778;9.166;2024-01-06T12:13:04;8.60;99.90
2913;DHT22;1466;48.778;9.166;2024-01-06T12:15:31;8.50;99.90
2913;DHT22;1466;48.778;9.166;2024-01-06T12:17:57;8.50;99.90
2913;DHT22;1466;48.778;9.166;2024-01-06T12:20:24;8.40;99.90
2913;DHT22;1466;48.778;9.166;2024-01-06T12:22:53;8.50;99.90
2913;DHT22;1466;48.778;9.166;2024-01-06T12:25:21;8.50;99.90
2913;DHT22;1466;48.778;9.166;2024-01-06T12:27:48;8.50;99.90
2913;DHT22;1466;48.778;9.166;2024-01-06T12:30:15;8.50;99.90
2913;DHT22;1466;48.778;9.166;2024-01-06T12:32:45;8.50;99.90
2913;DHT22;1466;48.778;9.166;2024-01-06T12:35:12;8.50;99.90
2913;DHT22;1466;48.778;9.166;2024-01-06T12:37:38;8.20;99.90
2913;DHT22;1466;48.778;9.166;2024-01-06T12:40:05;8.30;99.90
2913;DHT22;1466;48.778;9.166;2024-01-06T12:42:30;8.40;99.90
2913;DHT22;1466;48.778;9.166;2024-01-06T12:44:56;8.40;99.90
2913;DHT22;1466;48.778;9.166;2024-01-06T12:47:22;8.50;99.90
2913;DHT22;1466;48.778;9.166;2024-01-06T12:49:48;8.50;99.90
2913;DHT22;1466;48.778;9.166;2024-01-06T12:52:13;8.50;99.90
2913;DHT22;1466;48.778;9.166;2024-01-06T12:54:39;8.40;99.90
2913;DHT22;1466;48.778;9.166;2024-01-06T12:57:06;8.40;99.90
2913;DHT22;1466;48.778;9.166;2024-01-06T12:59:31;8.20;99.90
2913;DHT22;1466;48.778;9.166;2024-01-06T13:01:57;8.30;99.90
2913;DHT22;1466;48.778;9.166;2024-01-06T13:04:22;8.40;99.90
2913;DHT22;1466;48.778;9.166;2024-01-06T13:06:48;8.50;99.90
2913;DHT22;1466;48.778;9.166;2024-01-06T13:09:15;8.40;99.90
2913;DHT22;1466;48.778;9.166;2024-01-06T13:11:42;8.30;99.90
2913;DHT22;1466;48.778;9.166;2024-01-06T13:14:07;8.30;99.90
2913;DHT22;1466;48.778;9.166;2024-01-06T13:16:33;8.20;99.90
2913;DHT22;1466;48.778;9.166;2024-01-06T13:19:00;8.20;99.90
2913;DHT22;1466;48.778;9.166;2024-01-06T13:21:26;8.30;99.90
2913;DHT22;1466;48.778;9.166;2024-01-06T13:23:54;8.30;99.90
2913;DHT22;1466;48.778;9.166;2024-01-06T13:26:25;8.30;99.90
2913;DHT22;1466;48.778;9.166;2024-01-06T13:28:50;8.20;99.90
2913;DHT22;1466;48.778;9.166;2024-01-06T13:31:16;8.20;99.90
2913;DHT22;1466;48.778;9.166;2024-01-06T13:33:41;8.20;99.90
2913;DHT22;1466;48.778;9.166;2024-01-06T13:36:07;8.10;99.90
2913;DHT22;1466;48.778;9.166;2024-01-06T13:38:32;8.10;99.90
2913;DHT22;1466;48.778;9.166;2024-01-06T13:40:58;8.10;99.90
2913;DHT22;1466;48.778;9.166;2024-01-06T13:43:24;8.10;99.90
2913;DHT22;1466;48.778;9.166;2024-01-06T13:45:49;8.20;99.90
2913;DHT22;1466;48.778;9.166;2024-01-06T13:48:15;8.20;99.90
2913;DHT22;1466;48.778;9.166;2024-01-06T13:50:41;8.10;99.90
2913;DHT22;1466;48.778;9.166;2024-01-06T13:53:06;8.10;99.90
2913;DHT22;1466;48.778;9.166;2024-01-06T13:55:35;8.10;99.90
2913;DHT22;1466;48.778;9.166;2024-01-06T13:58:00;8.10;99.90
2913;DHT22;1466;48.778;9.166;2024-01-06T14:00:26;8.10;99.90
2913;DHT22;1466;48.778;9.166;2024-01-06T14:02:52;8.10;99.90
2913;DHT22;1466;48.778;9.166;2024-01-06T14:05:19;8.10;99.90
2913;DHT22;1466;48.778;9.166;2024-01-06T14:07:45;8.00;99.90
2913;DHT22;1466;48.778;9.166;2024-01-06T14:10:14;8.10;99.90
2913;DHT22;1466;48.778;9.166;2024-01-06T14:12:41;8.10;99.90
2913;DHT22;1466;48.778;9.166;2024-01-06T14:15:07;8.20;99.90
2913;DHT22;1466;48.778;9.166;2024-01-06T14:17:33;8.20;99.90
2913;DHT22;1466;48.778;9.166;2024-01-06T14:19:59;8.00;99.90
2913;DHT22;1466;48.778;9.166;2024-01-06T14:22:26;8.00;99.90
2913;DHT22;1466;48.778;9.166;2024-01-06T14:24:52;7.90;99.90
2913;DHT22;1466;48.778;9.166;2024-01-06T14:27:17;8.00;99.90
2913;DHT22;1466;48.778;9.166;2024-01-06T14:29:43;7.90;99.90
2913;DHT22;1466;48.778;9.166;2024-01-06T14:32:09;7.90;99.90
2913;DHT22;1466;48.778;9.166;2024-01-06T14:34:34;7.90;99.90
2913;DHT22;1466;48.778;9.166;2024-01-06T14:37:00;7.90;99.90
2913;DHT22;1466;48.778;9.166;2024-01-06T14:39:25;7.90;99.90
2913;DHT22;1466;48.778;9.166;2024-01-06T14:41:51;8.00;99.90
2913;DHT22;1466;48.778;9.166;2024-01-06T14:44:17;7.90;99.90
2913;DHT22;1466;48.778;9.166;2024-01-06T14:46:46;7.90;99.90
2913;DHT22;1466;48.778;9.166;2024-01-06T14:49:11;7.80;99.90
2913;DHT22;1466;48.778;9.166;2024-01-06T14:51:37;7.70;99.90
2913;DHT22;1466;48.778;9.166;2024-01-06T14:54:03;7.80;99.90
2913;DHT22;1466;48.778;9.166;2024-01-06T14:56:29;7.70;99.90
2913;DHT22;1466;48.778;9.166;2024-01-06T14:58:55;7.80;99.90
2913;DHT22;1466;48.778;9.166;2024-01-06T15:01:21;7.80;99.90
2913;DHT22;1466;48.778;9.166;2024-01-06T15:03:47;7.80;99.90
2913;DHT22;1466;48.778;9.166;2024-01-06T15:06:13;7.80;99.90
2913;DHT22;1466;48.778;9.166;2024-01-06T15:08:38;7.80;99.90
2913;DHT22;1466;48.778;9.166;2024-01-06T15:11:04;7.70;99.90
2913;DHT22;1466;48.778;9.166;2024-01-06T15:13:30;7.70;99.90
2913;DHT22;1466;48.778;9.166;2024-01-06T15:15:56;7.60;99.90
2913;DHT22;1466;48.778;9.166;2024-01-06T15:18:22;7.60;99.90
2913;DHT22;1466;48.778;9.166;2024-01-06T15:20:49;7.60;99.90
2913;DHT22;1466;48.778;9.166;2024-01-06T15:23:15;7.70;99.90
2913;DHT22;1466;48.778;9.166;2024-01-06T15:25:40;7.70;99.90
2913;DHT22;1466;48.778;9.166;2024-01-06T15:28:09;7.80;99.90
2913;DHT22;1466;48.778;9.166;2024-01-06T15:30:35;7.80;99.90
2913;DHT22;1466;48.778;9.166;2024-01-06T15:33:00;7.80;99.90
2913;DHT22;1466;48.778;9.166;2024-01-06T15:35:26;7.80;99.90
2913;DHT22;1466;48.778;9.166;2024-01-06T15:37:52;7.70;99.90
2913;DHT22;1466;48.778;9.166;2024-01-06T15:40:17;7.70;99.90
2913;DHT22;1466;48.778;9.166;2024-01-06T15:42:43;7.70;99.90
2913;DHT22;1466;48.778;9.166;2024-01-06T15:45:09;7.70;99.90
2913;DHT22;1466;48.778;9.166;2024-01-06T15:47:37;7.80;99.90
2913;DHT22;1466;48.778;9.166;2024-01-06T15:52:31;7.70;99.90
2913;DHT22;1466;48.778;9.166;2024-01-06T15:54:57;7.60;99.90
2913;DHT22;1466;48.778;9.166;2024-01-06T15:57:26;7.60;99.90
2913;DHT22;1466;48.778;9.166;2024-01-06T15:59:53;7.70;99.90
2913;DHT22;1466;48.778;9.166;2024-01-06T16:02:20;7.60;99.90
2913;DHT22;1466;48.778;9.166;2024-01-06T16:04:45;7.60;99.90
2913;DHT22;1466;48.778;9.166;2024-01-06T16:07:11;7.60;99.90
2913;DHT22;1466;48.778;9.166;2024-01-06T16:22:27;7.60;99.90
2913;DHT22;1466;48.778;9.166;2024-01-06T16:24:55;7.50;99.90
2913;DHT22;1466;48.778;9.166;2024-01-06T16:27:21;7.50;99.90
2913;DHT22;1466;48.778;9.166;2024-01-06T16:29:47;7.50;99.90
2913;DHT22;1466;48.778;9.166;2024-01-06T16:32:30;7.60;99.90
2913;DHT22;1466;48.778;9.166;2024-01-06T16:34:58;7.40;99.90
2913;DHT22;1466;48.778;9.166;2024-01-06T16:37:31;7.50;99.90
2913;DHT22;1466;48.778;9.166;2024-01-06T16:39:57;7.60;99.90